sensor_id;sensor_type;location;lat;lon;timestamp;P1;durP1;ratioP1;P2;durP2;ratioP2
55368;SDS011;41247;49.736;8.752;2023-04-25T00:01:12;24.17;;;11.10;;
55368;SDS011;41247;49.736;8.752;2023-04-25T00:04:53;16.35;;;10.40;;
55368;SDS011;41247;49.736;8.752;2023-04-25T00:08:33;18.00;;;10.80;;
55368;SDS011;41247;49.736;8.752;2023-04-25T00:12:14;20.50;;;11.57;;
55368;SDS011;41247;49.736;8.752;2023-04-25T00:15:54;23.30;;;11.77;;
55368;SDS011;41247;49.736;8.752;2023-04-25T00:19:35;23.88;;;12.10;;
55368;SDS011;41247;49.736;8.752;2023-04-25T00:23:16;25.92;;;14.20;;
55368;SDS011;41247;49.736;8.752;2023-04-25T00:26:57;30.02;;;15.05;;
55368;SDS011;41247;49.736;8.752;2023-04-25T00:30:38;27.52;;;14.77;;
55368;SDS011;41247;49.736;8.752;2023-04-25T00:34:19;32.92;;;15.68;;
55368;SDS011;41247;49.736;8.752;2023-04-25T00:38:00;32.03;;;15.95;;
55368;SDS011;41247;49.736;8.752;2023-04-25T00:41:40;36.28;;;16.70;;
55368;SDS011;41247;49.736;8.752;2023-04-25T00:45:21;32.03;;;15.38;;
55368;SDS011;41247;49.736;8.752;2023-04-25T00:49:07;29.00;;;15.60;;
55368;SDS011;41247;49.736;8.752;2023-04-25T00:52:48;30.85;;;15.70;;
55368;SDS011;41247;49.736;8.752;2023-04-25T00:56:28;31.88;;;16.75;;
55368;SDS011;41247;49.736;8.752;2023-04-25T01:00:09;32.83;;;16.35;;
55368;SDS011;41247;49.736;8.752;2023-04-25T01:03:50;33.17;;;15.98;;
55368;SDS011;41247;49.736;8.752;2023-04-25T01:07:33;25.25;;;14.70;;
55368;SDS011;41247;49.736;8.752;2023-04-25T01:11:14;25.25;;;14.27;;
55368;SDS011;41247;49.736;8.752;2023-04-25T01:14:54;26.60;;;14.50;;
55368;SDS011;41247;49.736;8.752;2023-04-25T01:18:36;25.55;;;14.63;;
55368;SDS011;41247;49.736;8.752;2023-04-25T01:22:19;28.15;;;14.63;;
55368;SDS011;41247;49.736;8.752;2023-04-25T01:25:59;26.95;;;15.07;;
55368;SDS011;41247;49.736;8.752;2023-04-25T01:29:41;37.22;;;16.33;;
55368;SDS011;41247;49.736;8.752;2023-04-25T01:33:22;32.88;;;16.60;;
55368;SDS011;41247;49.736;8.752;2023-04-25T01:37:02;37.05;;;16.92;;
55368;SDS011;41247;49.736;8.752;2023-04-25T01:40:43;38.83;;;17.42;;
55368;SDS011;41247;49.736;8.752;2023-04-25T01:44:25;38.85;;;16.70;;
55368;SDS011;41247;49.736;8.752;2023-04-25T01:48:09;38.13;;;17.98;;
55368;SDS011;41247;49.736;8.752;2023-04-25T01:51:51;37.47;;;18.23;;
55368;SDS011;41247;49.736;8.752;2023-04-25T01:55:32;35.25;;;17.67;;
55368;SDS011;41247;49.736;8.752;2023-04-25T01:59:13;41.38;;;17.90;;
55368;SDS011;41247;49.736;8.752;2023-04-25T02:02:53;37.35;;;18.48;;
55368;SDS011;41247;49.736;8.752;2023-04-25T02:06:38;40.72;;;18.35;;
55368;SDS011;41247;49.736;8.752;2023-04-25T02:10:18;36.22;;;17.75;;
55368;SDS011;41247;49.736;8.752;2023-04-25T02:13:59;40.58;;;17.80;;
55368;SDS011;41247;49.736;8.752;2023-04-25T02:17:39;40.63;;;17.45;;
55368;SDS011;41247;49.736;8.752;2023-04-25T02:21:20;35.50;;;16.42;;
55368;SDS011;41247;49.736;8.752;2023-04-25T02:25:01;31.08;;;15.18;;
55368;SDS011;41247;49.736;8.752;2023-04-25T02:28:42;31.50;;;15.27;;
55368;SDS011;41247;49.736;8.752;2023-04-25T02:32:22;36.55;;;16.50;;
55368;SDS011;41247;49.736;8.752;2023-04-25T02:36:03;33.72;;;15.77;;
55368;SDS011;41247;49.736;8.752;2023-04-25T02:39:44;31.25;;;15.48;;
55368;SDS011;41247;49.736;8.752;2023-04-25T02:43:25;32.85;;;15.40;;
55368;SDS011;41247;49.736;8.752;2023-04-25T02:47:05;31.40;;;14.93;;
55368;SDS011;41247;49.736;8.752;2023-04-25T02:50:46;31.75;;;16.05;;
55368;SDS011;41247;49.736;8.752;2023-04-25T02:54:26;35.03;;;16.42;;
55368;SDS011;41247;49.736;8.752;2023-04-25T02:58:07;34.55;;;17.15;;
55368;SDS011;41247;49.736;8.752;2023-04-25T03:01:48;37.38;;;17.95;;
55368;SDS011;41247;49.736;8.752;2023-04-25T03:05:28;34.13;;;16.73;;
55368;SDS011;41247;49.736;8.752;2023-04-25T03:09:09;35.08;;;17.42;;
55368;SDS011;41247;49.736;8.752;2023-04-25T03:12:49;34.63;;;17.90;;
55368;SDS011;41247;49.736;8.752;2023-04-25T03:16:30;40.38;;;19.92;;
55368;SDS011;41247;49.736;8.752;2023-04-25T03:20:11;40.47;;;19.98;;
55368;SDS011;41247;49.736;8.752;2023-04-25T03:23:51;41.60;;;20.33;;
55368;SDS011;41247;49.736;8.752;2023-04-25T03:27:32;42.30;;;20.33;;
55368;SDS011;41247;49.736;8.752;2023-04-25T03:31:13;58.20;;;22.83;;
55368;SDS011;41247;49.736;8.752;2023-04-25T03:34:53;45.92;;;22.23;;
55368;SDS011;41247;49.736;8.752;2023-04-25T03:38:34;47.67;;;21.83;;
55368;SDS011;41247;49.736;8.752;2023-04-25T03:42:15;48.45;;;20.60;;
55368;SDS011;41247;49.736;8.752;2023-04-25T03:45:55;49.03;;;20.88;;
55368;SDS011;41247;49.736;8.752;2023-04-25T03:49:36;45.58;;;20.63;;
55368;SDS011;41247;49.736;8.752;2023-04-25T03:53:17;41.28;;;19.80;;
55368;SDS011;41247;49.736;8.752;2023-04-25T03:56:57;48.38;;;21.25;;
55368;SDS011;41247;49.736;8.752;2023-04-25T04:00:38;44.88;;;20.80;;
55368;SDS011;41247;49.736;8.752;2023-04-25T04:04:18;39.88;;;19.10;;
55368;SDS011;41247;49.736;8.752;2023-04-25T04:07:59;37.40;;;18.58;;
55368;SDS011;41247;49.736;8.752;2023-04-25T04:11:40;35.20;;;18.30;;
55368;SDS011;41247;49.736;8.752;2023-04-25T04:15:20;36.83;;;19.17;;
55368;SDS011;41247;49.736;8.752;2023-04-25T04:19:01;35.50;;;17.73;;
55368;SDS011;41247;49.736;8.752;2023-04-25T04:22:42;32.97;;;17.83;;
55368;SDS011;41247;49.736;8.752;2023-04-25T04:26:23;36.30;;;18.92;;
55368;SDS011;41247;49.736;8.752;2023-04-25T04:30:03;40.25;;;19.92;;
55368;SDS011;41247;49.736;8.752;2023-04-25T04:33:45;42.40;;;20.95;;
55368;SDS011;41247;49.736;8.752;2023-04-25T04:37:26;40.13;;;21.88;;
55368;SDS011;41247;49.736;8.752;2023-04-25T04:41:06;40.15;;;21.40;;
55368;SDS011;41247;49.736;8.752;2023-04-25T04:44:47;41.03;;;20.73;;
55368;SDS011;41247;49.736;8.752;2023-04-25T04:48:28;37.92;;;18.20;;
55368;SDS011;41247;49.736;8.752;2023-04-25T04:52:09;37.15;;;19.58;;
55368;SDS011;41247;49.736;8.752;2023-04-25T04:55:49;40.00;;;20.90;;
55368;SDS011;41247;49.736;8.752;2023-04-25T04:59:30;36.70;;;20.20;;
55368;SDS011;41247;49.736;8.752;2023-04-25T05:03:10;42.88;;;21.90;;
55368;SDS011;41247;49.736;8.752;2023-04-25T05:06:51;53.00;;;22.77;;
55368;SDS011;41247;49.736;8.752;2023-04-25T05:10:32;42.13;;;20.92;;
55368;SDS011;41247;49.736;8.752;2023-04-25T05:14:13;39.15;;;20.75;;
55368;SDS011;41247;49.736;8.752;2023-04-25T05:17:53;41.55;;;21.23;;
55368;SDS011;41247;49.736;8.752;2023-04-25T05:21:34;36.25;;;19.75;;
55368;SDS011;41247;49.736;8.752;2023-04-25T05:25:15;38.03;;;20.13;;
55368;SDS011;41247;49.736;8.752;2023-04-25T05:28:55;43.25;;;21.00;;
55368;SDS011;41247;49.736;8.752;2023-04-25T05:32:39;37.10;;;20.58;;
55368;SDS011;41247;49.736;8.752;2023-04-25T05:36:20;40.05;;;20.65;;
55368;SDS011;41247;49.736;8.752;2023-04-25T05:40:00;39.08;;;19.33;;
55368;SDS011;41247;49.736;8.752;2023-04-25T05:43:42;35.72;;;20.02;;
55368;SDS011;41247;49.736;8.752;2023-04-25T05:47:23;38.75;;;21.10;;
55368;SDS011;41247;49.736;8.752;2023-04-25T05:51:04;40.65;;;21.27;;
55368;SDS011;41247;49.736;8.752;2023-04-25T05:54:44;43.80;;;22.10;;
55368;SDS011;41247;49.736;8.752;2023-04-25T05:58:25;46.55;;;25.08;;
55368;SDS011;41247;49.736;8.752;2023-04-25T06:02:06;58.20;;;27.25;;
55368;SDS011;41247;49.736;8.752;2023-04-25T06:05:46;43.28;;;20.67;;
55368;SDS011;41247;49.736;8.752;2023-04-25T06:09:27;31.58;;;13.73;;
55368;SDS011;41247;49.736;8.752;2023-04-25T06:13:07;31.13;;;13.15;;
55368;SDS011;41247;49.736;8.752;2023-04-25T06:16:48;31.85;;;13.55;;
55368;SDS011;41247;49.736;8.752;2023-04-25T06:20:29;26.23;;;12.45;;
55368;SDS011;41247;49.736;8.752;2023-04-25T06:24:09;22.73;;;12.23;;
55368;SDS011;41247;49.736;8.752;2023-04-25T06:27:50;30.58;;;14.13;;
55368;SDS011;41247;49.736;8.752;2023-04-25T06:31:30;27.58;;;10.02;;
55368;SDS011;41247;49.736;8.752;2023-04-25T06:35:11;21.25;;;8.50;;
55368;SDS011;41247;49.736;8.752;2023-04-25T06:38:52;22.95;;;7.95;;
55368;SDS011;41247;49.736;8.752;2023-04-25T06:42:32;24.20;;;9.50;;
55368;SDS011;41247;49.736;8.752;2023-04-25T06:46:13;20.13;;;8.98;;
55368;SDS011;41247;49.736;8.752;2023-04-25T06:49:53;25.90;;;8.43;;
55368;SDS011;41247;49.736;8.752;2023-04-25T06:53:34;26.95;;;9.85;;
55368;SDS011;41247;49.736;8.752;2023-04-25T06:57:15;24.67;;;10.05;;
55368;SDS011;41247;49.736;8.752;2023-04-25T07:00:55;28.70;;;10.18;;
55368;SDS011;41247;49.736;8.752;2023-04-25T07:04:36;25.40;;;11.00;;
55368;SDS011;41247;49.736;8.752;2023-04-25T07:08:17;26.40;;;10.93;;
55368;SDS011;41247;49.736;8.752;2023-04-25T07:11:57;21.50;;;10.45;;
55368;SDS011;41247;49.736;8.752;2023-04-25T07:15:38;20.70;;;10.27;;
55368;SDS011;41247;49.736;8.752;2023-04-25T07:19:19;25.85;;;11.57;;
55368;SDS011;41247;49.736;8.752;2023-04-25T07:22:59;30.65;;;10.25;;
55368;SDS011;41247;49.736;8.752;2023-04-25T07:26:40;23.13;;;10.10;;
55368;SDS011;41247;49.736;8.752;2023-04-25T07:30:20;21.75;;;10.68;;
55368;SDS011;41247;49.736;8.752;2023-04-25T07:34:01;23.38;;;10.18;;
55368;SDS011;41247;49.736;8.752;2023-04-25T07:37:42;24.15;;;10.05;;
55368;SDS011;41247;49.736;8.752;2023-04-25T07:41:22;20.40;;;9.30;;
55368;SDS011;41247;49.736;8.752;2023-04-25T07:45:03;19.35;;;8.27;;
55368;SDS011;41247;49.736;8.752;2023-04-25T07:48:44;18.17;;;8.50;;
55368;SDS011;41247;49.736;8.752;2023-04-25T07:52:25;18.40;;;7.65;;
55368;SDS011;41247;49.736;8.752;2023-04-25T07:56:05;15.80;;;7.55;;
55368;SDS011;41247;49.736;8.752;2023-04-25T07:59:46;19.75;;;7.55;;
55368;SDS011;41247;49.736;8.752;2023-04-25T08:03:27;21.27;;;8.05;;
55368;SDS011;41247;49.736;8.752;2023-04-25T08:07:08;14.27;;;7.20;;
55368;SDS011;41247;49.736;8.752;2023-04-25T08:10:48;18.73;;;7.20;;
55368;SDS011;41247;49.736;8.752;2023-04-25T08:14:29;18.58;;;7.80;;
55368;SDS011;41247;49.736;8.752;2023-04-25T08:18:10;20.08;;;8.20;;
55368;SDS011;41247;49.736;8.752;2023-04-25T08:21:51;16.30;;;7.28;;
55368;SDS011;41247;49.736;8.752;2023-04-25T08:25:31;13.98;;;7.93;;
55368;SDS011;41247;49.736;8.752;2023-04-25T08:29:12;16.42;;;7.57;;
55368;SDS011;41247;49.736;8.752;2023-04-25T08:32:53;21.15;;;7.93;;
55368;SDS011;41247;49.736;8.752;2023-04-25T08:36:33;14.05;;;7.30;;
55368;SDS011;41247;49.736;8.752;2023-04-25T08:40:14;22.30;;;7.80;;
55368;SDS011;41247;49.736;8.752;2023-04-25T08:43:56;21.55;;;7.35;;
55368;SDS011;41247;49.736;8.752;2023-04-25T08:47:38;12.27;;;6.50;;
55368;SDS011;41247;49.736;8.752;2023-04-25T08:51:22;12.05;;;6.38;;
55368;SDS011;41247;49.736;8.752;2023-04-25T08:55:03;13.27;;;6.65;;
55368;SDS011;41247;49.736;8.752;2023-04-25T08:58:47;20.33;;;6.80;;
55368;SDS011;41247;49.736;8.752;2023-04-25T09:02:29;13.50;;;6.35;;
55368;SDS011;41247;49.736;8.752;2023-04-25T09:06:10;11.90;;;5.95;;
55368;SDS011;41247;49.736;8.752;2023-04-25T09:09:51;13.10;;;6.05;;
55368;SDS011;41247;49.736;8.752;2023-04-25T09:13:32;12.65;;;5.90;;
55368;SDS011;41247;49.736;8.752;2023-04-25T09:17:12;13.15;;;5.82;;
55368;SDS011;41247;49.736;8.752;2023-04-25T09:20:53;14.05;;;5.22;;
55368;SDS011;41247;49.736;8.752;2023-04-25T09:24:39;13.20;;;4.88;;
55368;SDS011;41247;49.736;8.752;2023-04-25T09:28:24;8.13;;;4.18;;
55368;SDS011;41247;49.736;8.752;2023-04-25T09:32:10;6.90;;;4.25;;
55368;SDS011;41247;49.736;8.752;2023-04-25T09:36:06;8.10;;;3.97;;
55368;SDS011;41247;49.736;8.752;2023-04-25T09:39:54;9.75;;;4.20;;
55368;SDS011;41247;49.736;8.752;2023-04-25T09:43:37;10.93;;;4.50;;
55368;SDS011;41247;49.736;8.752;2023-04-25T09:47:19;13.93;;;5.20;;
55368;SDS011;41247;49.736;8.752;2023-04-25T09:51:04;10.43;;;4.90;;
55368;SDS011;41247;49.736;8.752;2023-04-25T09:54:53;13.40;;;4.97;;
55368;SDS011;41247;49.736;8.752;2023-04-25T09:58:34;15.95;;;4.85;;
55368;SDS011;41247;49.736;8.752;2023-04-25T10:02:18;15.80;;;4.88;;
55368;SDS011;41247;49.736;8.752;2023-04-25T10:09:44;9.55;;;3.33;;
55368;SDS011;41247;49.736;8.752;2023-04-25T10:13:29;7.85;;;3.20;;
55368;SDS011;41247;49.736;8.752;2023-04-25T10:17:12;12.20;;;3.80;;
55368;SDS011;41247;49.736;8.752;2023-04-25T10:20:56;7.80;;;3.30;;
55368;SDS011;41247;49.736;8.752;2023-04-25T10:24:46;7.88;;;3.17;;
55368;SDS011;41247;49.736;8.752;2023-04-25T10:28:26;7.38;;;3.25;;
55368;SDS011;41247;49.736;8.752;2023-04-25T10:32:07;8.63;;;3.03;;
55368;SDS011;41247;49.736;8.752;2023-04-25T10:35:48;7.85;;;3.20;;
55368;SDS011;41247;49.736;8.752;2023-04-25T10:39:29;5.25;;;3.00;;
55368;SDS011;41247;49.736;8.752;2023-04-25T10:47:43;9.02;;;3.78;;
55368;SDS011;41247;49.736;8.752;2023-04-25T10:51:25;6.63;;;3.28;;
55368;SDS011;41247;49.736;8.752;2023-04-25T10:55:11;10.15;;;3.70;;
55368;SDS011;41247;49.736;8.752;2023-04-25T11:03:04;10.25;;;3.35;;
55368;SDS011;41247;49.736;8.752;2023-04-25T11:06:55;5.88;;;3.08;;
55368;SDS011;41247;49.736;8.752;2023-04-25T11:10:49;5.85;;;3.70;;
55368;SDS011;41247;49.736;8.752;2023-04-25T11:14:30;9.43;;;4.18;;
55368;SDS011;41247;49.736;8.752;2023-04-25T11:18:15;7.75;;;4.03;;
55368;SDS011;41247;49.736;8.752;2023-04-25T11:21:56;10.65;;;4.22;;
55368;SDS011;41247;49.736;8.752;2023-04-25T11:25:41;9.70;;;3.72;;
55368;SDS011;41247;49.736;8.752;2023-04-25T11:29:23;9.88;;;4.10;;
55368;SDS011;41247;49.736;8.752;2023-04-25T11:33:06;9.38;;;4.15;;
55368;SDS011;41247;49.736;8.752;2023-04-25T11:36:49;9.15;;;4.28;;
55368;SDS011;41247;49.736;8.752;2023-04-25T11:40:30;7.93;;;4.07;;
55368;SDS011;41247;49.736;8.752;2023-04-25T11:44:10;11.98;;;4.97;;
55368;SDS011;41247;49.736;8.752;2023-04-25T11:47:51;9.57;;;5.03;;
55368;SDS011;41247;49.736;8.752;2023-04-25T11:51:42;9.50;;;4.57;;
55368;SDS011;41247;49.736;8.752;2023-04-25T11:55:24;9.57;;;4.93;;
55368;SDS011;41247;49.736;8.752;2023-04-25T11:59:05;11.32;;;5.65;;
55368;SDS011;41247;49.736;8.752;2023-04-25T12:02:47;13.70;;;5.80;;
55368;SDS011;41247;49.736;8.752;2023-04-25T12:06:31;12.25;;;5.65;;
55368;SDS011;41247;49.736;8.752;2023-04-25T12:10:16;10.02;;;5.10;;
55368;SDS011;41247;49.736;8.752;2023-04-25T12:14:04;8.40;;;4.90;;
55368;SDS011;41247;49.736;8.752;2023-04-25T12:17:45;10.38;;;4.85;;
55368;SDS011;41247;49.736;8.752;2023-04-25T12:21:28;9.10;;;5.38;;
55368;SDS011;41247;49.736;8.752;2023-04-25T12:25:08;12.65;;;4.70;;
55368;SDS011;41247;49.736;8.752;2023-04-25T12:28:49;9.82;;;4.97;;
55368;SDS011;41247;49.736;8.752;2023-04-25T12:32:30;13.15;;;5.45;;
55368;SDS011;41247;49.736;8.752;2023-04-25T12:36:10;9.90;;;4.63;;
55368;SDS011;41247;49.736;8.752;2023-04-25T12:39:51;12.02;;;5.45;;
55368;SDS011;41247;49.736;8.752;2023-04-25T12:43:32;9.73;;;4.93;;
55368;SDS011;41247;49.736;8.752;2023-04-25T12:47:13;12.55;;;5.45;;
55368;SDS011;41247;49.736;8.752;2023-04-25T12:50:54;10.90;;;4.90;;
55368;SDS011;41247;49.736;8.752;2023-04-25T12:54:34;11.55;;;5.80;;
55368;SDS011;41247;49.736;8.752;2023-04-25T12:58:15;13.73;;;5.13;;
55368;SDS011;41247;49.736;8.752;2023-04-25T13:01:58;10.10;;;5.07;;
55368;SDS011;41247;49.736;8.752;2023-04-25T13:05:39;12.57;;;5.45;;
55368;SDS011;41247;49.736;8.752;2023-04-25T13:09:20;14.57;;;4.88;;
55368;SDS011;41247;49.736;8.752;2023-04-25T13:13:01;9.30;;;4.93;;
55368;SDS011;41247;49.736;8.752;2023-04-25T13:16:41;15.27;;;5.10;;
55368;SDS011;41247;49.736;8.752;2023-04-25T13:20:22;9.73;;;5.13;;
55368;SDS011;41247;49.736;8.752;2023-04-25T13:24:03;9.80;;;5.13;;
55368;SDS011;41247;49.736;8.752;2023-04-25T13:27:44;8.77;;;4.70;;
55368;SDS011;41247;49.736;8.752;2023-04-25T13:31:24;11.05;;;4.20;;
55368;SDS011;41247;49.736;8.752;2023-04-25T13:35:06;9.88;;;4.15;;
55368;SDS011;41247;49.736;8.752;2023-04-25T13:38:49;12.38;;;4.38;;
55368;SDS011;41247;49.736;8.752;2023-04-25T13:42:30;9.50;;;3.67;;
55368;SDS011;41247;49.736;8.752;2023-04-25T13:46:12;9.65;;;3.60;;
55368;SDS011;41247;49.736;8.752;2023-04-25T13:49:52;12.25;;;3.30;;
55368;SDS011;41247;49.736;8.752;2023-04-25T13:53:33;10.38;;;3.55;;
55368;SDS011;41247;49.736;8.752;2023-04-25T13:57:14;10.88;;;3.20;;
55368;SDS011;41247;49.736;8.752;2023-04-25T14:00:54;11.40;;;3.28;;
55368;SDS011;41247;49.736;8.752;2023-04-25T14:04:35;9.63;;;2.97;;
55368;SDS011;41247;49.736;8.752;2023-04-25T14:08:16;10.43;;;3.05;;
55368;SDS011;41247;49.736;8.752;2023-04-25T14:11:56;7.60;;;2.85;;
55368;SDS011;41247;49.736;8.752;2023-04-25T14:15:37;5.82;;;2.55;;
55368;SDS011;41247;49.736;8.752;2023-04-25T14:19:18;7.63;;;2.88;;
55368;SDS011;41247;49.736;8.752;2023-04-25T14:22:58;8.80;;;2.70;;
55368;SDS011;41247;49.736;8.752;2023-04-25T14:26:39;8.40;;;3.17;;
55368;SDS011;41247;49.736;8.752;2023-04-25T14:30:20;10.50;;;3.30;;
55368;SDS011;41247;49.736;8.752;2023-04-25T14:34:01;8.63;;;3.13;;
55368;SDS011;41247;49.736;8.752;2023-04-25T14:37:42;9.25;;;3.58;;
55368;SDS011;41247;49.736;8.752;2023-04-25T14:41:23;11.13;;;3.35;;
55368;SDS011;41247;49.736;8.752;2023-04-25T14:45:05;8.15;;;3.47;;
55368;SDS011;41247;49.736;8.752;2023-04-25T14:48:47;9.65;;;3.10;;
55368;SDS011;41247;49.736;8.752;2023-04-25T14:52:27;9.73;;;3.25;;
55368;SDS011;41247;49.736;8.752;2023-04-25T14:56:08;8.63;;;2.90;;
55368;SDS011;41247;49.736;8.752;2023-04-25T14:59:49;7.95;;;2.67;;
55368;SDS011;41247;49.736;8.752;2023-04-25T15:03:29;7.53;;;3.22;;
55368;SDS011;41247;49.736;8.752;2023-04-25T15:07:10;9.02;;;3.17;;
55368;SDS011;41247;49.736;8.752;2023-04-25T15:10:50;7.15;;;2.83;;
55368;SDS011;41247;49.736;8.752;2023-04-25T15:14:31;8.93;;;2.72;;
55368;SDS011;41247;49.736;8.752;2023-04-25T15:22:10;8.55;;;2.85;;
55368;SDS011;41247;49.736;8.752;2023-04-25T15:25:50;7.82;;;2.50;;
55368;SDS011;41247;49.736;8.752;2023-04-25T15:29:31;7.28;;;2.70;;
55368;SDS011;41247;49.736;8.752;2023-04-25T15:33:11;8.35;;;2.63;;
55368;SDS011;41247;49.736;8.752;2023-04-25T15:36:52;8.95;;;2.58;;
55368;SDS011;41247;49.736;8.752;2023-04-25T15:40:32;6.95;;;2.50;;
55368;SDS011;41247;49.736;8.752;2023-04-25T15:44:13;7.93;;;2.67;;
55368;SDS011;41247;49.736;8.752;2023-04-25T15:47:55;24.38;;;9.10;;
55368;SDS011;41247;49.736;8.752;2023-04-25T15:51:35;4.10;;;2.35;;
55368;SDS011;41247;49.736;8.752;2023-04-25T15:55:17;7.35;;;2.40;;
55368;SDS011;41247;49.736;8.752;2023-04-25T15:58:58;9.32;;;2.38;;
55368;SDS011;41247;49.736;8.752;2023-04-25T16:02:41;10.60;;;2.80;;
55368;SDS011;41247;49.736;8.752;2023-04-25T16:06:24;5.60;;;2.35;;
55368;SDS011;41247;49.736;8.752;2023-04-25T16:10:06;6.90;;;2.67;;
55368;SDS011;41247;49.736;8.752;2023-04-25T16:13:48;12.63;;;3.10;;
55368;SDS011;41247;49.736;8.752;2023-04-25T16:17:28;11.15;;;2.53;;
55368;SDS011;41247;49.736;8.752;2023-04-25T16:21:09;11.25;;;3.35;;
55368;SDS011;41247;49.736;8.752;2023-04-25T16:24:49;4.75;;;2.33;;
55368;SDS011;41247;49.736;8.752;2023-04-25T16:28:32;8.50;;;2.60;;
55368;SDS011;41247;49.736;8.752;2023-04-25T16:32:13;7.70;;;3.25;;
55368;SDS011;41247;49.736;8.752;2023-04-25T16:35:53;10.65;;;4.05;;
55368;SDS011;41247;49.736;8.752;2023-04-25T16:39:34;10.07;;;3.60;;
55368;SDS011;41247;49.736;8.752;2023-04-25T16:43:14;6.25;;;2.60;;
55368;SDS011;41247;49.736;8.752;2023-04-25T16:50:41;10.05;;;3.10;;
55368;SDS011;41247;49.736;8.752;2023-04-25T16:54:21;9.00;;;2.80;;
55368;SDS011;41247;49.736;8.752;2023-04-25T16:58:02;10.90;;;3.92;;
55368;SDS011;41247;49.736;8.752;2023-04-25T17:01:42;11.43;;;2.50;;
55368;SDS011;41247;49.736;8.752;2023-04-25T17:05:23;10.35;;;2.72;;
55368;SDS011;41247;49.736;8.752;2023-04-25T17:09:04;9.23;;;3.58;;
55368;SDS011;41247;49.736;8.752;2023-04-25T17:12:44;8.93;;;3.38;;
55368;SDS011;41247;49.736;8.752;2023-04-25T17:16:32;14.00;;;3.58;;
55368;SDS011;41247;49.736;8.752;2023-04-25T17:20:17;7.25;;;2.83;;
55368;SDS011;41247;49.736;8.752;2023-04-25T17:23:57;9.60;;;2.92;;
55368;SDS011;41247;49.736;8.752;2023-04-25T17:27:38;7.82;;;2.70;;
55368;SDS011;41247;49.736;8.752;2023-04-25T17:31:19;8.20;;;2.65;;
55368;SDS011;41247;49.736;8.752;2023-04-25T17:35:00;7.28;;;2.55;;
55368;SDS011;41247;49.736;8.752;2023-04-25T17:38:41;7.50;;;2.60;;
55368;SDS011;41247;49.736;8.752;2023-04-25T17:42:21;10.35;;;3.08;;
55368;SDS011;41247;49.736;8.752;2023-04-25T17:46:02;11.63;;;2.95;;
55368;SDS011;41247;49.736;8.752;2023-04-25T17:49:43;8.15;;;2.90;;
55368;SDS011;41247;49.736;8.752;2023-04-25T17:53:23;11.10;;;3.08;;
55368;SDS011;41247;49.736;8.752;2023-04-25T17:57:04;10.00;;;2.95;;
55368;SDS011;41247;49.736;8.752;2023-04-25T18:00:44;6.57;;;2.75;;
55368;SDS011;41247;49.736;8.752;2023-04-25T18:04:25;9.75;;;3.03;;
55368;SDS011;41247;49.736;8.752;2023-04-25T18:08:06;6.50;;;2.50;;
55368;SDS011;41247;49.736;8.752;2023-04-25T18:11:47;7.18;;;2.92;;
55368;SDS011;41247;49.736;8.752;2023-04-25T18:15:28;7.97;;;2.88;;
55368;SDS011;41247;49.736;8.752;2023-04-25T18:19:09;9.32;;;2.80;;
55368;SDS011;41247;49.736;8.752;2023-04-25T18:22:49;7.70;;;2.70;;
55368;SDS011;41247;49.736;8.752;2023-04-25T18:26:30;9.50;;;2.92;;
55368;SDS011;41247;49.736;8.752;2023-04-25T18:30:11;11.35;;;2.90;;
55368;SDS011;41247;49.736;8.752;2023-04-25T18:33:52;9.20;;;2.63;;
55368;SDS011;41247;49.736;8.752;2023-04-25T18:37:33;5.97;;;2.38;;
55368;SDS011;41247;49.736;8.752;2023-04-25T18:41:15;9.93;;;2.90;;
